Time;durP1;ratioP1;P1;durP2;ratioP2;P2;SDS_P1;SDS_P2;PMS_P1;PMS_P2;Temp;Humidity;BMP_temperature;BMP_pressure;BME280_temperature;BME280_humidity;BME280_pressure;Samples;Min_cycle;Max_cycle;Signal;HPM_P1;HPM_P2
2021/12/08 00:00:57;;;;;;;6.53;2.80;;;0.50;93.80;;;;;;4983318;28;20297;-69
2021/12/08 00:03:24;;;;;;;9.57;4.05;;;0.40;93.70;;;;;;4983546;28;20031;-69
2021/12/08 00:05:50;;;;;;;6.18;3.42;;;0.50;93.70;;;;;;4982216;28;20238;-68
2021/12/08 00:08:18;;;;;;;7.45;3.33;;;0.50;93.50;;;;;;4983497;28;20033;-69
2021/12/08 00:13:17;;;;;;;5.80;2.92;;;0.50;93.60;;;;;;4967272;28;20030;-69
2021/12/08 00:15:51;;;;;;;7.60;3.35;;;0.50;93.60;;;;;;4982870;28;20069;-69
2021/12/08 00:18:22;;;;;;;9.85;4.10;;;0.40;93.60;;;;;;4998456;28;20038;-68
2021/12/08 00:20:48;;;;;;;9.27;4.18;;;0.40;93.70;;;;;;4983394;28;20018;-68
2021/12/08 00:23:15;;;;;;;5.53;3.25;;;0.40;93.70;;;;;;4983319;28;20025;-70
2021/12/08 00:25:41;;;;;;;;;;;0.40;93.80;;;;;;4982454;28;20401;-70
2021/12/08 00:28:07;;;;;;;9.45;3.90;;;0.30;93.90;;;;;;4983267;28;19906;-70
2021/12/08 00:30:33;;;;;;;7.38;3.17;;;0.20;94.10;;;;;;4983445;28;20018;-70
2021/12/08 00:32:59;;;;;;;8.35;3.28;;;0.20;94.20;;;;;;4982142;28;20015;-70
2021/12/08 00:35:27;;;;;;;4.95;2.85;;;0.30;94.20;;;;;;4982063;28;20225;-70
2021/12/08 00:37:56;;;;;;;7.72;3.83;;;0.30;94.10;;;;;;4983349;28;20030;-70
2021/12/08 00:40:22;;;;;;;8.20;3.63;;;0.30;94.20;;;;;;4983294;28;20110;-70
2021/12/08 00:42:48;;;;;;;7.30;3.60;;;0.30;94.20;;;;;;4984965;28;20034;-70
2021/12/08 00:45:15;;;;;;;8.88;4.03;;;0.30;94.20;;;;;;4986645;28;20045;-70
2021/12/08 00:47:41;;;;;;;7.03;3.25;;;0.30;94.20;;;;;;4985562;28;20030;-70
2021/12/08 00:50:09;;;;;;;5.67;3.40;;;0.40;94.00;;;;;;4986761;28;20321;-70
2021/12/08 00:52:35;;;;;;;8.10;3.92;;;0.30;94.00;;;;;;4969238;28;20504;-70
2021/12/08 00:55:01;;;;;;;6.30;3.23;;;0.40;94.00;;;;;;4986499;28;20322;-70
2021/12/08 00:57:27;;;;;;;9.23;3.83;;;0.30;93.90;;;;;;4986585;28;20343;-70
2021/12/08 00:59:53;;;;;;;6.15;3.22;;;0.30;94.00;;;;;;4986696;28;20082;-69
2021/12/08 01:02:19;;;;;;;7.15;3.80;;;0.30;93.90;;;;;;4985165;28;20054;-69
2021/12/08 01:04:44;;;;;;;7.05;3.75;;;0.30;93.90;;;;;;5001618;28;20027;-70
2021/12/08 01:07:10;;;;;;;7.15;3.88;;;0.40;93.90;;;;;;4991158;28;20022;-70
2021/12/08 01:09:36;;;;;;;8.27;4.00;;;0.40;93.80;;;;;;4973462;28;20257;-70
2021/12/08 01:12:03;;;;;;;7.15;3.53;;;0.40;93.90;;;;;;4989161;28;20035;-70
2021/12/08 01:14:31;;;;;;;5.70;3.35;;;0.50;93.70;;;;;;4972691;28;20357;-71
2021/12/08 01:16:57;;;;;;;7.82;4.00;;;0.50;93.40;;;;;;4971352;28;20038;-71
2021/12/08 01:19:24;;;;;;;7.45;3.58;;;0.60;93.40;;;;;;4986002;28;20027;-71
2021/12/08 01:21:50;;;;;;;11.27;4.63;;;0.60;93.40;;;;;;4969342;28;20019;-71
2021/12/08 01:24:16;;;;;;;6.97;3.72;;;0.50;93.50;;;;;;4985085;28;20237;-71
2021/12/08 01:26:42;;;;;;;10.43;4.17;;;0.60;93.40;;;;;;4986324;28;20090;-70
2021/12/08 01:29:08;;;;;;;8.20;3.80;;;0.70;93.20;;;;;;4987187;28;20046;-70
2021/12/08 01:31:36;;;;;;;9.87;3.60;;;0.70;93.00;;;;;;4987230;28;20217;-70
2021/12/08 01:34:03;;;;;;;8.13;4.10;;;0.70;93.10;;;;;;4986481;28;20333;-71
2021/12/08 01:36:29;;;;;;;7.03;4.00;;;0.70;93.00;;;;;;4986203;28;20023;-71
2021/12/08 01:38:55;;;;;;;8.60;4.20;;;0.70;93.30;;;;;;4986132;28;20041;-71
2021/12/08 01:41:23;;;;;;;9.88;4.35;;;0.70;93.10;;;;;;4985815;28;20057;-71
2021/12/08 01:46:33;;;;;;;10.90;5.13;;;0.70;93.00;;;;;;4984814;28;20053;-71
2021/12/08 01:48:59;;;;;;;8.85;4.10;;;0.60;93.20;;;;;;4985876;28;20221;-70
2021/12/08 01:51:25;;;;;;;9.20;3.80;;;0.60;93.30;;;;;;4984653;28;20023;-71
2021/12/08 01:53:53;;;;;;;9.70;3.95;;;0.60;93.30;;;;;;4984005;28;20032;-70
2021/12/08 01:56:22;;;;;;;10.00;4.35;;;0.60;93.40;;;;;;4984200;28;20027;-71
2021/12/08 01:58:48;;;;;;;12.32;4.45;;;0.70;93.40;;;;;;4968831;28;20026;-72
2021/12/08 02:01:16;;;;;;;9.50;4.03;;;0.70;93.30;;;;;;4985028;28;20039;-70
2021/12/08 02:03:43;;;;;;;10.13;4.72;;;0.70;93.20;;;;;;4985414;28;20023;-70
2021/12/08 02:06:10;;;;;;;9.63;4.07;;;0.80;93.20;;;;;;4984084;28;20023;-70
2021/12/08 02:08:35;;;;;;;;;;;0.70;93.20;;;;;;4985757;28;20106;-70
2021/12/08 02:11:02;;;;;;;10.90;4.57;;;0.80;93.20;;;;;;4985261;28;19917;-70
2021/12/08 02:13:35;;;;;;;8.77;5.10;;;0.80;93.20;;;;;;4985247;28;20062;-70
2021/12/08 02:16:01;;;;;;;10.80;4.57;;;0.90;93.10;;;;;;4984736;28;20312;-70
2021/12/08 02:18:27;;;;;;;11.52;5.05;;;0.90;93.10;;;;;;4984037;28;20337;-70
2021/12/08 02:20:57;;;;;;;9.23;5.05;;;0.90;93.10;;;;;;4985056;28;20030;-70
2021/12/08 02:23:23;;;;;;;8.10;4.15;;;1.00;93.00;;;;;;4985081;28;20031;-71
2021/12/08 02:25:49;;;;;;;7.88;4.20;;;1.00;92.90;;;;;;4984772;28;20062;-70
2021/12/08 02:28:15;;;;;;;15.90;5.20;;;1.10;92.80;;;;;;4967968;28;20029;-70
2021/12/08 02:30:57;;;;;;;10.27;4.70;;;1.10;92.70;;;;;;4983876;28;20229;-71
2021/12/08 02:47:27;;;;;;;9.40;5.07;;;1.20;92.40;;;;;;4983429;28;20041;-70
2021/12/08 02:49:53;;;;;;;7.55;4.93;;;1.20;92.50;;;;;;4955150;28;20029;-71
2021/12/08 02:52:19;;;;;;;10.38;5.28;;;1.20;92.50;;;;;;4983327;28;20321;-71
2021/12/08 02:54:48;;;;;;;12.50;5.27;;;1.10;92.70;;;;;;4983216;28;20018;-71
2021/12/08 02:57:15;;;;;;;12.82;4.70;;;1.10;92.60;;;;;;4984442;28;20027;-71
2021/12/08 02:59:42;;;;;;;10.25;5.38;;;1.20;92.70;;;;;;4984351;28;20027;-71
2021/12/08 03:02:08;;;;;;;12.55;5.35;;;1.20;92.40;;;;;;4982735;28;20027;-71
2021/12/08 03:04:34;;;;;;;8.80;4.68;;;1.20;92.60;;;;;;4982882;28;20053;-71
2021/12/08 03:07:00;;;;;;;6.95;3.40;;;1.20;92.80;;;;;;4983453;28;20280;-71
2021/12/08 03:09:26;;;;;;;8.13;4.20;;;1.10;92.80;;;;;;4999224;28;20081;-71
2021/12/08 03:11:55;;;;;;;9.70;4.88;;;1.20;92.80;;;;;;4984221;28;20285;-71
2021/12/08 03:14:21;;;;;;;10.05;4.78;;;1.30;92.60;;;;;;4983834;28;20026;-71
2021/12/08 03:16:52;;;;;;;9.73;4.57;;;1.30;92.50;;;;;;4983881;28;20023;-71
2021/12/08 03:19:21;;;;;;;7.50;4.82;;;1.30;92.30;;;;;;4983992;28;20260;-71
2021/12/08 03:21:47;;;;;;;8.27;4.50;;;1.40;92.30;;;;;;4982916;28;20022;-71
2021/12/08 03:24:27;;;;;;;8.73;4.70;;;1.40;91.80;;;;;;4983859;28;20026;-69
2021/12/08 03:27:08;;;;;;;8.90;3.80;;;1.40;91.80;;;;;;4984039;28;20329;-69
2021/12/08 03:29:57;;;;;;;9.02;4.10;;;1.50;91.70;;;;;;4984781;28;20268;-69
2021/12/08 03:32:34;;;;;;;9.52;4.35;;;1.40;91.80;;;;;;4983670;28;20049;-68
2021/12/08 03:35:00;;;;;;;9.20;4.22;;;1.50;91.80;;;;;;4983637;28;20034;-69
2021/12/08 03:37:35;;;;;;;10.50;4.35;;;1.50;91.70;;;;;;4983845;28;20027;-69
2021/12/08 03:40:06;;;;;;;9.73;4.30;;;1.50;91.90;;;;;;4998424;28;20022;-71
2021/12/08 03:42:35;;;;;;;8.07;4.13;;;1.50;91.40;;;;;;4984050;28;20027;-70
2021/12/08 03:45:06;;;;;;;10.38;3.38;;;1.60;91.30;;;;;;4983490;28;20023;-70
2021/12/08 03:47:31;;;;;;;8.73;3.90;;;1.60;91.30;;;;;;4951467;28;20090;-71
2021/12/08 03:50:00;;;;;;;5.55;3.13;;;1.60;91.00;;;;;;4982642;28;20038;-70
2021/12/08 03:52:26;;;;;;;5.45;3.20;;;1.60;91.00;;;;;;4983509;28;20034;-71
2021/12/08 03:54:51;;;;;;;7.30;3.58;;;1.70;90.90;;;;;;4983356;28;20074;-71
2021/12/08 03:57:17;;;;;;;6.63;3.63;;;1.70;90.80;;;;;;4983683;28;20035;-70
2021/12/08 03:59:43;;;;;;;7.47;3.70;;;1.70;90.90;;;;;;4966422;28;20024;-70
2021/12/08 04:02:09;;;;;;;6.18;3.33;;;1.70;91.20;;;;;;5041204;23;20053;-70
2021/12/08 04:04:43;;;;;;;4.60;3.05;;;1.70;90.90;;;;;;5035739;28;20067;-71
2021/12/08 04:07:11;;;;;;;6.75;3.53;;;1.70;90.80;;;;;;5026108;28;20017;-73
2021/12/08 04:09:40;;;;;;;7.70;3.40;;;1.80;90.80;;;;;;5042207;28;20312;-70
2021/12/08 04:12:12;;;;;;;6.93;3.40;;;1.70;90.60;;;;;;5041168;28;20085;-71
2021/12/08 04:14:43;;;;;;;5.10;2.85;;;1.80;90.60;;;;;;5040978;28;20017;-69
2021/12/08 04:17:29;;;;;;;8.85;3.33;;;1.80;90.30;;;;;;5042887;28;20017;-70
2021/12/08 04:19:55;;;;;;;4.97;2.58;;;1.80;90.40;;;;;;5045253;28;20239;-70
2021/12/08 04:22:29;;;;;;;4.82;2.95;;;1.80;90.70;;;;;;5045082;28;20021;-71
2021/12/08 04:24:55;;;;;;;5.82;3.13;;;1.80;90.50;;;;;;5045982;28;20048;-71
2021/12/08 04:27:27;;;;;;;6.05;3.72;;;1.80;90.40;;;;;;5044943;28;20028;-71
2021/12/08 04:29:53;;;;;;;5.60;3.10;;;1.80;90.60;;;;;;5045946;28;20025;-71
2021/12/08 04:32:21;;;;;;;6.97;2.83;;;1.90;90.40;;;;;;5016269;28;20054;-71
2021/12/08 04:34:50;;;;;;;7.10;2.90;;;1.90;90.30;;;;;;5005173;28;20042;-71
2021/12/08 04:37:23;;;;;;;4.53;2.90;;;1.80;90.30;;;;;;4989309;28;20018;-71
2021/12/08 04:40:28;;;;;;;5.40;2.70;;;1.90;90.00;;;;;;5006427;28;20018;-71
2021/12/08 04:43:09;;;;;;;4.50;2.80;;;1.90;90.00;;;;;;5006274;28;20029;-70
2021/12/08 04:46:28;;;;;;;4.70;2.83;;;1.90;90.10;;;;;;4990906;28;20041;-72
2021/12/08 05:02:20;;;;;;;7.10;3.42;;;1.90;90.20;;;;;;5016047;28;20075;-72
2021/12/08 05:09:57;;;;;;;5.82;3.33;;;1.90;90.40;;;;;;5024485;28;20382;-71
2021/12/08 05:12:31;;;;;;;11.30;3.80;;;1.90;90.40;;;;;;5024385;28;20018;-72
2021/12/08 05:15:11;;;;;;;5.78;3.20;;;1.90;90.50;;;;;;5025088;28;20026;-72
2021/12/08 05:18:08;;;;;;;7.45;3.08;;;1.90;90.20;;;;;;5024959;28;20084;-72
2021/12/08 05:20:39;;;;;;;7.50;4.07;;;1.90;90.40;;;;;;5020645;28;20040;-72
2021/12/08 05:23:52;;;;;;;6.60;3.65;;;1.90;90.10;;;;;;5024092;28;20026;-72
2021/12/08 05:26:24;;;;;;;7.43;4.05;;;1.90;90.30;;;;;;5003277;28;20284;-72
2021/12/08 05:28:59;;;;;;;5.30;3.28;;;1.90;90.30;;;;;;5022160;28;20049;-72
2021/12/08 05:31:29;;;;;;;7.03;3.20;;;1.90;90.40;;;;;;5023275;28;20022;-70
2021/12/08 05:33:54;;;;;;;6.95;4.03;;;1.90;90.40;;;;;;5024890;28;20026;-71
2021/12/08 05:36:20;;;;;;;6.72;3.63;;;1.90;90.20;;;;;;5022692;28;20029;-71
2021/12/08 05:38:48;;;;;;;6.20;3.50;;;1.90;90.50;;;;;;5022722;28;20100;-71
2021/12/08 05:41:24;;;;;;;10.10;4.03;;;1.90;90.70;;;;;;5022469;28;20033;-71
2021/12/08 05:43:50;;;;;;;11.60;3.72;;;1.80;90.90;;;;;;5022913;28;20277;-70
2021/12/08 05:46:17;;;;;;;10.80;4.32;;;1.90;91.00;;;;;;5015801;28;20022;-70
2021/12/08 05:48:45;;;;;;;;;;;1.90;91.00;;;;;;5015458;28;20030;-70
2021/12/08 05:51:19;;;;;;;12.05;3.85;;;1.90;91.20;;;;;;5013905;28;19905;-72
2021/12/08 05:53:49;;;;;;;6.25;3.83;;;1.90;91.10;;;;;;5013875;28;20041;-73
2021/12/08 05:56:16;;;;;;;5.53;3.40;;;1.80;91.50;;;;;;5013727;28;20026;-72
2021/12/08 05:58:42;;;;;;;7.75;3.63;;;1.80;91.70;;;;;;5013717;28;20014;-73
2021/12/08 06:01:38;;;;;;;9.20;4.05;;;1.80;91.90;;;;;;5012965;28;20030;-74
2021/12/08 06:04:06;;;;;;;5.45;3.50;;;1.80;92.00;;;;;;5016089;28;20042;-74
2021/12/08 06:06:32;;;;;;;6.93;3.90;;;1.70;92.40;;;;;;5006099;28;20018;-74
2021/12/08 06:08:58;;;;;;;7.07;4.13;;;1.70;92.80;;;;;;5022450;28;20022;-74
2021/12/08 06:11:26;;;;;;;7.95;3.92;;;1.70;92.90;;;;;;5036891;28;20032;-73
2021/12/08 06:13:52;;;;;;;6.32;3.83;;;1.80;92.90;;;;;;5022789;28;20029;-72
2021/12/08 06:16:21;;;;;;;12.90;4.47;;;1.80;92.90;;;;;;5016742;28;20025;-72
2021/12/08 06:18:51;;;;;;;7.30;3.45;;;1.70;93.00;;;;;;5003061;28;20033;-72
2021/12/08 06:21:21;;;;;;;11.98;4.13;;;1.70;93.30;;;;;;5003112;28;20049;-72
2021/12/08 06:23:47;;;;;;;7.68;4.40;;;1.70;93.50;;;;;;5002347;28;20109;-72
2021/12/08 06:26:16;;;;;;;7.93;4.30;;;1.60;93.60;;;;;;5022482;28;20026;-71
2021/12/08 06:28:42;;;;;;;8.25;4.45;;;1.60;93.60;;;;;;5021651;28;20029;-71
2021/12/08 06:31:09;;;;;;;9.77;4.65;;;1.60;93.60;;;;;;5016304;28;20026;-71
2021/12/08 06:33:34;;;;;;;;;;;1.60;93.70;;;;;;4970410;28;20114;-71
2021/12/08 06:36:12;;;;;;;10.55;3.70;;;1.50;94.00;;;;;;4998279;28;20088;-71
2021/12/08 06:38:38;;;;;;;;;;;1.50;94.00;;;;;;5010137;28;20022;-71
2021/12/08 06:41:24;;;;;;;8.45;4.40;;;1.50;94.10;;;;;;5001558;28;19975;-71
2021/12/08 06:43:55;;;;;;;10.23;5.07;;;1.50;93.90;;;;;;5006820;28;20029;-71
2021/12/08 06:46:21;;;;;;;10.77;5.28;;;1.60;93.90;;;;;;5009763;28;20048;-71
2021/12/08 06:48:55;;;;;;;13.90;5.57;;;1.60;94.10;;;;;;5002857;28;20033;-71
2021/12/08 06:51:39;;;;;;;8.85;4.72;;;1.60;94.10;;;;;;5001501;28;20113;-72
2021/12/08 06:54:09;;;;;;;9.15;5.25;;;1.60;94.10;;;;;;4996384;28;20191;-72
2021/12/08 06:56:40;;;;;;;7.65;4.25;;;1.60;94.00;;;;;;5011758;28;20297;-72
2021/12/08 06:59:20;;;;;;;8.77;4.97;;;1.60;93.90;;;;;;5001753;28;20114;-72
2021/12/08 07:02:06;;;;;;;12.48;4.90;;;1.60;94.00;;;;;;4995820;28;20026;-72
2021/12/08 07:04:56;;;;;;;9.23;4.63;;;1.60;94.20;;;;;;5006782;28;20036;-72
2021/12/08 07:07:26;;;;;;;9.32;4.43;;;1.50;94.20;;;;;;5020957;28;20025;-72
2021/12/08 07:10:14;;;;;;;6.93;4.25;;;1.60;94.00;;;;;;5004866;28;20079;-73
2021/12/08 07:12:50;;;;;;;10.70;4.85;;;1.60;94.00;;;;;;5021010;28;20045;-73
2021/12/08 07:15:25;;;;;;;17.45;5.22;;;1.60;94.10;;;;;;5020413;28;20266;-74
2021/12/08 07:17:58;;;;;;;14.10;5.80;;;1.60;94.00;;;;;;5020565;28;20368;-73
2021/12/08 07:20:46;;;;;;;10.88;5.47;;;1.50;93.90;;;;;;5020553;28;20018;-73
2021/12/08 07:23:18;;;;;;;12.65;6.68;;;1.50;94.10;;;;;;5020878;28;20081;-77
2021/12/08 07:25:45;;;;;;;12.85;5.60;;;1.50;94.30;;;;;;5019042;28;20029;-75
2021/12/08 07:28:12;;;;;;;10.38;5.38;;;1.50;94.40;;;;;;5003507;28;20355;-74
2021/12/08 07:30:42;;;;;;;;;;;1.50;94.40;;;;;;5001974;28;20349;-74
2021/12/08 07:33:08;;;;;;;9.85;5.07;;;1.60;94.20;;;;;;5016380;28;19906;-74
2021/12/08 07:35:42;;;;;;;12.35;5.57;;;1.60;94.10;;;;;;5013902;28;20292;-75
2021/12/08 07:38:11;;;;;;;10.05;5.65;;;1.60;94.20;;;;;;5005138;28;20123;-78
2021/12/08 07:41:18;;;;;;;9.00;5.22;;;1.60;94.00;;;;;;5015992;28;20033;-72
2021/12/08 07:43:48;;;;;;;12.45;6.40;;;1.70;93.90;;;;;;5015827;28;20029;-71
2021/12/08 07:46:25;;;;;;;10.98;5.15;;;1.70;93.90;;;;;;5001235;28;20053;-72
2021/12/08 07:49:09;;;;;;;12.00;4.72;;;1.60;94.10;;;;;;5017536;28;20029;-73
2021/12/08 07:52:06;;;;;;;11.73;5.30;;;1.50;94.30;;;;;;5001870;28;20029;-78
2021/12/08 07:54:32;;;;;;;9.48;5.70;;;1.60;94.30;;;;;;5001608;28;20018;-72
2021/12/08 07:57:04;;;;;;;9.02;4.63;;;1.70;94.10;;;;;;5020095;28;20052;-72
2021/12/08 07:59:30;;;;;;;11.80;4.82;;;1.70;94.00;;;;;;5011647;28;20050;-75
2021/12/08 08:01:58;;;;;;;14.63;6.23;;;1.70;93.80;;;;;;4983885;28;20031;-73
2021/12/08 08:04:25;;;;;;;10.80;5.30;;;1.60;94.10;;;;;;4984189;28;20093;-78
2021/12/08 08:06:56;;;;;;;10.48;5.30;;;1.60;94.20;;;;;;4973755;28;20051;-74
2021/12/08 08:09:27;;;;;;;9.95;5.00;;;1.60;94.30;;;;;;5000303;28;20092;-75
2021/12/08 08:11:57;;;;;;;11.63;6.07;;;1.60;94.40;;;;;;4998849;28;20037;-75
2021/12/08 08:14:27;;;;;;;11.25;5.60;;;1.80;94.00;;;;;;4984188;28;20065;-75
2021/12/08 08:16:56;;;;;;;12.52;5.57;;;1.80;94.00;;;;;;4997763;28;20041;-75
2021/12/08 08:19:26;;;;;;;12.15;5.00;;;1.80;94.00;;;;;;5004553;28;20023;-76
2021/12/08 08:21:56;;;;;;;12.63;5.75;;;1.80;94.00;;;;;;5000584;28;20044;-73
2021/12/08 08:24:22;;;;;;;10.82;5.38;;;1.80;94.00;;;;;;5003567;28;20030;-75
2021/12/08 08:26:50;;;;;;;12.30;5.15;;;1.80;93.80;;;;;;5003765;28;20033;-74
2021/12/08 08:29:15;;;;;;;11.60;5.55;;;1.80;93.80;;;;;;5020012;28;20041;-75
2021/12/08 08:31:59;;;;;;;11.23;5.03;;;1.80;93.90;;;;;;5005636;28;20121;-77
2021/12/08 08:34:35;;;;;;;8.85;4.57;;;1.80;93.90;;;;;;5011556;28;20018;-69
2021/12/08 08:37:03;;;;;;;13.80;5.20;;;1.90;93.90;;;;;;5015354;28;20080;-70
2021/12/08 08:39:32;;;;;;;12.02;5.25;;;1.90;94.00;;;;;;5006827;28;20363;-70
2021/12/08 08:42:05;;;;;;;11.55;5.65;;;1.90;93.90;;;;;;5011952;28;20530;-69
2021/12/08 08:44:47;;;;;;;9.95;5.32;;;1.90;93.90;;;;;;5019116;28;20017;-73
2021/12/08 08:47:22;;;;;;;9.57;4.85;;;1.90;93.90;;;;;;5019040;28;20268;-73
2021/12/08 08:49:48;;;;;;;11.55;5.75;;;1.90;94.00;;;;;;5000299;28;20053;-74
2021/12/08 08:52:28;;;;;;;11.15;5.00;;;1.90;94.00;;;;;;5002575;28;20018;-77
2021/12/08 08:54:56;;;;;;;13.77;5.82;;;1.90;94.10;;;;;;5018500;28;20022;-76
2021/12/08 08:57:34;;;;;;;10.52;5.63;;;1.90;94.10;;;;;;5002380;28;20164;-75
2021/12/08 09:00:15;;;;;;;;;;;1.90;94.10;;;;;;5019331;28;20403;-74
2021/12/08 09:02:41;;;;;;;10.48;4.35;;;2.00;94.10;;;;;;5002324;28;19910;-75
2021/12/08 09:05:27;;;;;;;12.05;5.47;;;2.00;93.90;;;;;;4993083;28;20093;-76
2021/12/08 09:07:55;;;;;;;11.95;5.30;;;2.00;94.00;;;;;;5022767;28;20022;-74
2021/12/08 09:10:31;;;;;;;9.52;5.00;;;2.00;94.20;;;;;;5006732;28;20028;-74
2021/12/08 09:13:04;;;;;;;10.90;5.85;;;2.00;94.40;;;;;;5022762;28;20013;-74
2021/12/08 09:15:40;;;;;;;13.73;6.15;;;2.10;94.20;;;;;;5006715;28;20022;-74
2021/12/08 09:18:11;;;;;;;9.82;5.28;;;2.10;94.20;;;;;;5022574;28;20228;-74
2021/12/08 09:20:59;;;;;;;12.23;5.82;;;2.10;94.10;;;;;;5006521;28;20025;-74
2021/12/08 09:23:46;;;;;;;14.98;5.70;;;2.10;94.10;;;;;;5022609;28;20028;-74
2021/12/08 09:26:14;;;;;;;10.85;5.20;;;2.00;94.10;;;;;;5021936;28;20032;-74
2021/12/08 09:28:59;;;;;;;14.00;5.65;;;2.00;94.20;;;;;;5022304;28;20121;-74
2021/12/08 09:31:31;;;;;;;10.07;5.03;;;2.00;94.30;;;;;;5014965;28;20014;-73
2021/12/08 09:34:20;;;;;;;10.18;4.47;;;2.00;94.40;;;;;;5002700;28;20022;-73
2021/12/08 09:37:05;;;;;;;12.25;6.25;;;2.00;94.30;;;;;;5002182;28;20132;-73
2021/12/08 09:39:44;;;;;;;10.30;5.72;;;2.00;94.30;;;;;;5002527;28;20089;-73
2021/12/08 09:42:31;;;;;;;10.95;5.68;;;2.10;94.40;;;;;;5003877;28;20026;-74
2021/12/08 09:45:23;;;;;;;9.88;5.68;;;2.10;94.30;;;;;;4986119;28;20026;-74
2021/12/08 09:47:49;;;;;;;12.98;5.80;;;2.20;94.50;;;;;;5001719;28;20276;-73
2021/12/08 09:50:15;;;;;;;11.82;5.90;;;2.50;95.10;;;;;;4986414;28;20026;-75
2021/12/08 09:52:45;;;;;;;10.85;5.95;;;2.80;96.70;;;;;;5003319;28;20114;-75
2021/12/08 09:55:13;;;;;;;15.90;6.68;;;2.70;94.30;;;;;;5002216;28;20082;-74
2021/12/08 09:57:39;;;;;;;9.60;5.47;;;2.70;93.70;;;;;;4986381;28;20034;-75
2021/12/08 10:00:08;;;;;;;15.27;6.95;;;2.60;94.10;;;;;;5003515;28;20030;-75
2021/12/08 10:02:35;;;;;;;11.43;5.72;;;2.60;93.90;;;;;;5018016;28;20121;-75
2021/12/08 10:05:14;;;;;;;12.40;6.05;;;2.60;93.90;;;;;;5021492;28;20068;-76
2021/12/08 10:07:40;;;;;;;11.77;6.30;;;2.50;94.00;;;;;;5035063;23;20038;-70
2021/12/08 10:10:08;;;;;;;12.60;6.15;;;2.60;93.80;;;;;;5012382;28;20114;-71
2021/12/08 10:12:35;;;;;;;16.00;6.85;;;2.60;93.80;;;;;;5019955;28;20037;-70
2021/12/08 10:15:02;;;;;;;17.23;6.70;;;2.50;94.00;;;;;;5019602;28;20041;-70
2021/12/08 10:17:28;;;;;;;12.75;6.60;;;2.60;94.30;;;;;;5004562;28;20220;-70
2021/12/08 10:20:12;;;;;;;17.20;6.45;;;2.60;93.80;;;;;;5004635;28;20018;-70
2021/12/08 10:22:40;;;;;;;12.45;6.53;;;2.70;93.50;;;;;;5004456;28;20073;-70
2021/12/08 10:25:21;;;;;;;13.80;6.53;;;2.70;93.60;;;;;;5003138;28;20057;-70
2021/12/08 10:28:14;;;;;;;13.82;6.68;;;2.80;93.20;;;;;;5012185;28;20194;-70
2021/12/08 10:31:28;;;;;;;12.88;6.20;;;2.70;93.00;;;;;;5022965;28;20353;-72
2021/12/08 10:36:56;;;;;;;13.10;7.03;;;2.70;93.20;;;;;;5002078;28;20097;-73
2021/12/08 10:39:46;;;;;;;13.30;6.43;;;2.70;93.30;;;;;;5001888;28;20022;-69
2021/12/08 10:42:24;;;;;;;11.88;6.22;;;2.60;93.30;;;;;;5019097;28;20030;-70
2021/12/08 10:44:57;;;;;;;12.50;6.10;;;2.60;93.50;;;;;;5003184;28;20022;-70
2021/12/08 10:47:31;;;;;;;15.55;6.70;;;2.60;93.50;;;;;;5017971;28;20045;-70
2021/12/08 10:55:57;;;;;;;11.73;5.88;;;2.70;93.40;;;;;;4994635;28;20025;-69
2021/12/08 10:58:26;;;;;;;16.83;7.82;;;2.80;92.90;;;;;;5034687;28;20022;-69
2021/12/08 11:00:54;;;;;;;13.20;6.60;;;2.80;92.80;;;;;;5035176;28;20057;-70
2021/12/08 11:03:20;;;;;;;13.65;7.45;;;2.80;93.00;;;;;;5034984;28;20055;-70
2021/12/08 11:05:55;;;;;;;12.95;6.53;;;2.80;93.10;;;;;;5018491;28;20029;-72
2021/12/08 11:08:34;;;;;;;15.98;7.00;;;2.70;92.90;;;;;;4997858;28;20042;-72
2021/12/08 11:11:09;;;;;;;14.45;7.00;;;2.70;92.90;;;;;;4983151;28;20057;-72
2021/12/08 11:13:43;;;;;;;15.45;6.30;;;2.70;92.90;;;;;;4998455;28;20091;-71
2021/12/08 11:16:21;;;;;;;17.52;8.10;;;2.70;93.00;;;;;;4983361;28;20389;-71
2021/12/08 11:19:13;;;;;;;13.75;6.68;;;2.60;93.20;;;;;;4983482;28;20102;-71
2021/12/08 11:21:48;;;;;;;13.50;7.15;;;2.70;93.00;;;;;;4983471;28;20048;-71
2021/12/08 11:24:31;;;;;;;15.27;7.72;;;2.60;93.30;;;;;;4998153;28;20101;-71
2021/12/08 11:26:58;;;;;;;16.02;7.55;;;2.70;93.40;;;;;;4983074;28;20027;-68
2021/12/08 11:29:36;;;;;;;16.77;7.57;;;2.70;93.50;;;;;;4983464;28;20029;-68
2021/12/08 11:32:05;;;;;;;21.05;8.02;;;2.70;93.30;;;;;;4983965;28;20023;-68
2021/12/08 11:34:46;;;;;;;15.95;8.18;;;2.70;93.10;;;;;;4983563;28;20222;-68
2021/12/08 11:37:34;;;;;;;14.63;7.28;;;2.60;93.20;;;;;;4999491;28;20198;-68
2021/12/08 11:40:01;;;;;;;;;;;2.70;93.20;;;;;;4991697;28;20030;-68
2021/12/08 11:42:35;;;;;;;15.32;7.75;;;2.70;92.90;;;;;;5003530;28;19936;-67
2021/12/08 11:45:13;;;;;;;16.30;7.82;;;2.70;92.80;;;;;;5002512;28;20022;-68
2021/12/08 11:47:40;;;;;;;16.63;7.43;;;2.60;92.90;;;;;;5017383;28;20053;-66
2021/12/08 11:50:13;;;;;;;17.77;8.52;;;2.70;93.00;;;;;;5002624;28;20030;-66
2021/12/08 11:52:39;;;;;;;16.83;8.85;;;2.60;93.10;;;;;;5002901;28;20050;-65
2021/12/08 11:55:12;;;;;;;18.95;7.85;;;2.60;93.10;;;;;;5002721;28;20022;-65
2021/12/08 11:58:03;;;;;;;14.48;7.50;;;2.60;93.20;;;;;;5018076;28;20045;-66
2021/12/08 12:00:32;;;;;;;17.83;7.43;;;2.60;93.20;;;;;;5002592;28;20348;-68
2021/12/08 12:03:10;;;;;;;18.67;9.27;;;2.50;93.50;;;;;;5017538;28;20019;-68
2021/12/08 12:05:42;;;;;;;23.02;9.82;;;2.60;93.40;;;;;;5002337;28;20297;-68
2021/12/08 12:08:14;;;;;;;18.00;7.53;;;2.60;93.10;;;;;;5001999;28;20149;-69
2021/12/08 12:10:44;;;;;;;17.50;7.97;;;2.60;93.30;;;;;;5001067;28;20046;-69
2021/12/08 12:13:11;;;;;;;20.52;8.40;;;2.60;93.40;;;;;;5002916;28;20222;-66
2021/12/08 12:15:47;;;;;;;17.30;8.35;;;2.60;93.20;;;;;;5002200;28;20023;-66
2021/12/08 12:18:17;;;;;;;19.85;8.00;;;2.60;93.70;;;;;;5002779;28;20041;-68
2021/12/08 12:21:12;;;;;;;14.13;7.95;;;2.60;93.50;;;;;;5017125;28;20094;-67
2021/12/08 12:23:57;;;;;;;17.67;8.07;;;2.50;93.90;;;;;;5014707;28;20089;-68
2021/12/08 12:26:45;;;;;;;22.13;8.60;;;2.70;93.50;;;;;;5017105;28;20026;-67
2021/12/08 12:29:36;;;;;;;15.27;7.15;;;2.60;93.60;;;;;;5002614;28;20257;-71
2021/12/08 12:32:34;;;;;;;14.50;6.82;;;2.70;93.20;;;;;;5016937;28;20040;-67
2021/12/08 12:35:26;;;;;;;15.65;8.15;;;2.70;93.30;;;;;;5014816;28;20048;-68
2021/12/08 12:38:08;;;;;;;23.13;9.23;;;2.70;93.70;;;;;;5014852;28;20093;-72
2021/12/08 12:40:47;;;;;;;17.08;8.48;;;2.70;93.60;;;;;;5000589;28;21416;-68
2021/12/08 12:43:29;;;;;;;18.33;7.85;;;2.60;93.80;;;;;;4996945;28;20030;-68
2021/12/08 12:46:13;;;;;;;15.65;7.22;;;2.60;94.10;;;;;;5006053;28;20037;-69
2021/12/08 12:48:39;;;;;;;19.08;7.78;;;2.60;94.10;;;;;;5020535;28;20225;-68
2021/12/08 12:51:13;;;;;;;17.98;8.95;;;2.70;94.10;;;;;;5006237;28;20018;-68
2021/12/08 12:53:46;;;;;;;14.70;7.22;;;2.80;94.00;;;;;;5005786;28;20022;-69
2021/12/08 12:56:37;;;;;;;15.88;7.22;;;2.70;94.00;;;;;;5006232;28;20041;-70
2021/12/08 12:59:20;;;;;;;16.77;7.72;;;2.70;94.30;;;;;;4998938;28;20098;-70
2021/12/08 13:01:48;;;;;;;19.35;9.20;;;2.80;94.10;;;;;;5006094;28;20050;-70
2021/12/08 13:04:25;;;;;;;17.27;8.23;;;2.70;93.90;;;;;;5020772;28;20022;-70
2021/12/08 13:07:01;;;;;;;19.17;8.85;;;2.60;94.30;;;;;;5020405;28;20038;-68
2021/12/08 13:09:53;;;;;;;14.98;8.07;;;2.60;94.40;;;;;;5005431;28;20042;-66
2021/12/08 13:12:34;;;;;;;21.25;7.90;;;2.60;94.50;;;;;;5005230;28;20022;-66
2021/12/08 13:15:26;;;;;;;19.52;8.68;;;2.60;94.50;;;;;;5006024;28;20213;-67
2021/12/08 13:18:13;;;;;;;24.58;9.05;;;2.50;94.70;;;;;;5001226;28;20030;-65
2021/12/08 13:20:44;;;;;;;18.10;8.43;;;2.50;95.00;;;;;;5005462;28;20028;-65
2021/12/08 13:23:18;;;;;;;16.70;8.27;;;2.60;94.70;;;;;;5004400;28;20050;-65
2021/12/08 13:28:22;;;;;;;15.43;8.00;;;2.50;94.60;;;;;;5003937;28;20355;-65
2021/12/08 13:31:14;;;;;;;20.98;9.35;;;2.50;94.80;;;;;;5005416;28;20085;-68
2021/12/08 13:33:53;;;;;;;20.45;8.85;;;2.50;95.10;;;;;;5005446;28;20029;-68
2021/12/08 13:36:22;;;;;;;19.00;8.50;;;2.40;95.10;;;;;;5005414;28;20276;-69
2021/12/08 13:38:57;;;;;;;18.50;9.07;;;2.40;95.30;;;;;;5004338;28;20028;-69
2021/12/08 13:41:27;;;;;;;16.80;8.10;;;2.30;95.40;;;;;;5005395;28;20224;-70
2021/12/08 13:43:54;;;;;;;19.42;8.35;;;2.50;95.00;;;;;;5004908;28;20022;-70
2021/12/08 13:46:40;;;;;;;;;;;2.50;94.90;;;;;;5005119;28;20057;-70
2021/12/08 13:49:34;;;;;;;16.58;7.88;;;2.40;95.10;;;;;;5004297;28;19955;-70
2021/12/08 13:52:08;;;;;;;18.25;8.90;;;2.40;95.10;;;;;;5005093;28;20297;-68
2021/12/08 13:54:42;;;;;;;16.85;8.80;;;2.50;95.00;;;;;;5004469;28;20022;-68
2021/12/08 13:57:40;;;;;;;18.33;9.35;;;2.50;94.90;;;;;;5003843;28;20018;-71
2021/12/08 14:00:17;;;;;;;18.30;7.73;;;2.60;95.00;;;;;;5000544;28;20014;-69
2021/12/08 14:03:04;;;;;;;18.13;7.90;;;2.50;95.00;;;;;;5005273;28;20046;-69
2021/12/08 14:05:35;;;;;;;17.02;7.43;;;2.60;95.00;;;;;;5004765;28;20109;-69
2021/12/08 14:08:17;;;;;;;20.38;8.15;;;2.50;95.00;;;;;;5016147;28;20359;-70
2021/12/08 14:10:47;;;;;;;13.15;6.95;;;2.40;95.00;;;;;;5004009;28;20026;-70
2021/12/08 14:13:15;;;;;;;18.10;8.35;;;2.40;95.20;;;;;;5020662;28;20321;-70